Hundvaag 1 weather for Sep 1996
Month no. 111
Obs.
Da.
Temp. Dew Point Precip. Wind
Speed
Wind gusts Cloud cover Press. Humidity Wind dir. Sunny OPT
01.09.1996 11,6   0,0     0       1  
02.09.1996 9,2   0,0     0          
03.09.1996 12,6   2,1     0       1  
04.09.1996 10,9   0,0     9       1  
05.09.1996 8,8   0,0     10       1  
06.09.1996 9,6   0,0     9       1  
07.09.1996 13,1   1,9     1       1  
08.09.1996 13,4   0,4     0       1  
09.09.1996 10,1   0,0     9       1  
10.09.1996 12,2   0,0     1       1  
11.09.1996 9,7   0,0     0          
12.09.1996 10,1   3,8     8       1  
13.09.1996 10,8   0,0     10       1  
14.09.1996 8,0   0,0     4       1  
15.09.1996 7,6   0,0     8       1  
16.09.1996 7,2   0,0     9       1  
17.09.1996 8,9   0,0     10       1  
18.09.1996 7,2   0,0     10       1  
19.09.1996 8,2   0,0     10       1  
20.09.1996 9,0   0,0     10       1  
21.09.1996 10,4   0,0     10          
22.09.1996 11,1   1,0     0          
23.09.1996 7,6   0,0     9          
24.09.1996 10,5   0,0     0          
25.09.1996 11,0   0,0     0          
26.09.1996 10,6   0,5     0       1  
27.09.1996 12,0   4,1     0       1  
28.09.1996 9,3   23,0     0          
29.09.1996 10,6   14,0     0       1  
30.09.1996 9,4   12,0     0          
                       
Avrg/Sum 10,0   62,8     4,6       21